SUD1A SLLP-SGAS
Flight info
| Callsign | SUD1A |
|---|---|
| Flight time | 1h 46m |
| Altitude | 37000 |
| Route | VAPAS UM657 UKELA |
| Aircraft | A320/M-SDFGHILORVWY/S |
Departure
| Time | 2026-05-08 12:23 |
|---|---|
| Airport | El Alto International Airport (SLLP) |
Arrival
| Time | 2026-05-08 14:10 |
|---|---|
| Airport | Silvio Pettirossi International Airport (SGAS) |
| Time | Latitude | Longitude | Altitude | Speed | Heading |
|---|---|---|---|---|---|
| 2026-05-08 12:08 | -16.50974 | -68.17690 | 13300 ft | 0 kts | 26° |
| 2026-05-08 12:14 | -16.50982 | -68.17694 | 13298 ft | 3 kts | 17° |
| 2026-05-08 12:14 | -16.51000 | -68.17696 | 13297 ft | 3 kts | 340° |
| 2026-05-08 12:14 | -16.51016 | -68.17690 | 13299 ft | 1 kts | 345° |
| 2026-05-08 12:14 | -16.51021 | -68.17688 | 13301 ft | 0 kts | 345° |
| 2026-05-08 12:17 | -16.51019 | -68.17689 | 13300 ft | 1 kts | 343° |
| 2026-05-08 12:18 | -16.51014 | -68.17698 | 13302 ft | 3 kts | 301° |
| 2026-05-08 12:18 | -16.51000 | -68.17736 | 13298 ft | 8 kts | 285° |
| 2026-05-08 12:18 | -16.50995 | -68.17812 | 13294 ft | 13 kts | 271° |
| 2026-05-08 12:18 | -16.51026 | -68.17911 | 13293 ft | 16 kts | 227° |
| 2026-05-08 12:19 | -16.51111 | -68.18005 | 13291 ft | 19 kts | 227° |
| 2026-05-08 12:19 | -16.51208 | -68.18114 | 13285 ft | 22 kts | 226° |
| 2026-05-08 12:19 | -16.51301 | -68.18250 | 13276 ft | 22 kts | 240° |
| 2026-05-08 12:19 | -16.51366 | -68.18282 | 13275 ft | 2 kts | 123° |
| 2026-05-08 12:20 | -16.51366 | -68.18276 | 13275 ft | 0 kts | 98° |
| 2026-05-08 12:20 | -16.51366 | -68.18265 | 13276 ft | 4 kts | 91° |
| 2026-05-08 12:20 | -16.51367 | -68.18211 | 13279 ft | 11 kts | 91° |
| 2026-05-08 12:20 | -16.51370 | -68.18115 | 13282 ft | 16 kts | 92° |
| 2026-05-08 12:21 | -16.51374 | -68.17984 | 13290 ft | 20 kts | 92° |
| 2026-05-08 12:21 | -16.51379 | -68.17828 | 13303 ft | 23 kts | 92° |
| 2026-05-08 12:21 | -16.51385 | -68.17656 | 13316 ft | 22 kts | 92° |
| 2026-05-08 12:21 | -16.51389 | -68.17507 | 13320 ft | 19 kts | 92° |
| 2026-05-08 12:22 | -16.51373 | -68.17388 | 13327 ft | 14 kts | 92° |
| 2026-05-08 12:22 | -16.51394 | -68.17386 | 13327 ft | 4 kts | 255° |
| 2026-05-08 12:22 | -16.51391 | -68.17450 | 13323 ft | 20 kts | 272° |
| 2026-05-08 12:22 | -16.51379 | -68.17837 | 13302 ft | 86 kts | 272° |
| 2026-05-08 12:23 | -16.51353 | -68.18665 | 13254 ft | 141 kts | 272° |
| 2026-05-08 12:23 | -16.51315 | -68.19858 | 13192 ft | 187 kts | 272° |
| 2026-05-08 12:23 | -16.51271 | -68.21298 | 13583 ft | 197 kts | 271° |
| 2026-05-08 12:23 | -16.51230 | -68.22718 | 14408 ft | 196 kts | 272° |
| 2026-05-08 12:24 | -16.51183 | -68.24140 | 14960 ft | 197 kts | 272° |
| 2026-05-08 12:24 | -16.51133 | -68.25602 | 15130 ft | 209 kts | 272° |
| 2026-05-08 12:24 | -16.51079 | -68.27171 | 15255 ft | 224 kts | 272° |
| 2026-05-08 12:24 | -16.51024 | -68.28852 | 15376 ft | 240 kts | 272° |
| 2026-05-08 12:25 | -16.51060 | -68.30650 | 15465 ft | 257 kts | 257° |
| 2026-05-08 12:25 | -16.51946 | -68.32313 | 15529 ft | 276 kts | 221° |
| 2026-05-08 12:25 | -16.53700 | -68.33241 | 15642 ft | 297 kts | 190° |
| 2026-05-08 12:25 | -16.55813 | -68.33068 | 15758 ft | 319 kts | 160° |
| 2026-05-08 12:26 | -16.57698 | -68.31748 | 15894 ft | 341 kts | 131° |
| 2026-05-08 12:26 | -16.58949 | -68.29578 | 16031 ft | 361 kts | 113° |
| 2026-05-08 12:26 | -16.59820 | -68.27056 | 16169 ft | 379 kts | 109° |
| 2026-05-08 12:26 | -16.60668 | -68.24440 | 16399 ft | 391 kts | 109° |
| 2026-05-08 12:27 | -16.61546 | -68.21731 | 16834 ft | 397 kts | 110° |
| 2026-05-08 12:27 | -16.62619 | -68.19020 | 17301 ft | 401 kts | 116° |
| 2026-05-08 12:27 | -16.63907 | -68.16425 | 17722 ft | 405 kts | 120° |
| 2026-05-08 12:27 | -16.65316 | -68.13909 | 18148 ft | 410 kts | 122° |
| 2026-05-08 12:28 | -16.66807 | -68.11360 | 18566 ft | 413 kts | 123° |
| 2026-05-08 12:28 | -16.68307 | -68.08787 | 18963 ft | 417 kts | 122° |
| 2026-05-08 12:28 | -16.69791 | -68.06175 | 19325 ft | 421 kts | 122° |
| 2026-05-08 12:28 | -16.71256 | -68.03518 | 19712 ft | 424 kts | 121° |
| 2026-05-08 12:29 | -16.72706 | -68.00824 | 20104 ft | 427 kts | 120° |
| 2026-05-08 12:29 | -16.74159 | -67.98108 | 20497 ft | 430 kts | 123° |
| 2026-05-08 12:29 | -16.75974 | -67.95630 | 20860 ft | 431 kts | 135° |
| 2026-05-08 12:29 | -16.78026 | -67.93336 | 21255 ft | 434 kts | 135° |
| 2026-05-08 12:30 | -16.80095 | -67.91030 | 21675 ft | 437 kts | 135° |
| 2026-05-08 12:30 | -16.82181 | -67.88706 | 22059 ft | 440 kts | 135° |
| 2026-05-08 12:30 | -16.84281 | -67.86362 | 22456 ft | 443 kts | 135° |
| 2026-05-08 12:30 | -16.86392 | -67.83996 | 22798 ft | 447 kts | 135° |
| 2026-05-08 12:31 | -16.88520 | -67.81608 | 23171 ft | 451 kts | 135° |
| 2026-05-08 12:31 | -16.90659 | -67.79207 | 23583 ft | 452 kts | 135° |
| 2026-05-08 12:31 | -16.92805 | -67.76794 | 23931 ft | 455 kts | 135° |
| 2026-05-08 12:31 | -16.94963 | -67.74367 | 24272 ft | 457 kts | 135° |
| 2026-05-08 12:32 | -16.97134 | -67.71928 | 24574 ft | 460 kts | 135° |
| 2026-05-08 12:32 | -16.99317 | -67.69477 | 24885 ft | 462 kts | 135° |
| 2026-05-08 12:32 | -17.01509 | -67.67015 | 25237 ft | 464 kts | 135° |
| 2026-05-08 12:32 | -17.03711 | -67.64541 | 25543 ft | 466 kts | 135° |
| 2026-05-08 12:33 | -17.05921 | -67.62053 | 25841 ft | 468 kts | 135° |
| 2026-05-08 12:33 | -17.08141 | -67.59552 | 26155 ft | 470 kts | 135° |
| 2026-05-08 12:33 | -17.10369 | -67.57039 | 26468 ft | 472 kts | 135° |
| 2026-05-08 12:33 | -17.12610 | -67.54516 | 26808 ft | 475 kts | 135° |
| 2026-05-08 12:34 | -17.14863 | -67.51983 | 27120 ft | 477 kts | 135° |
| 2026-05-08 12:34 | -17.17135 | -67.49443 | 27400 ft | 479 kts | 135° |
| 2026-05-08 12:34 | -17.19419 | -67.46897 | 27709 ft | 481 kts | 135° |
| 2026-05-08 12:34 | -17.21711 | -67.44343 | 27988 ft | 483 kts | 135° |
| 2026-05-08 12:35 | -17.24017 | -67.41775 | 28251 ft | 485 kts | 135° |
| 2026-05-08 12:35 | -17.25548 | -67.40070 | 28447 ft | 487 kts | 135° |
| 2026-05-08 12:35 | -17.27870 | -67.37483 | 28706 ft | 489 kts | 135° |
| 2026-05-08 12:35 | -17.30200 | -67.34882 | 28954 ft | 491 kts | 135° |
| 2026-05-08 12:36 | -17.32535 | -67.32270 | 29200 ft | 492 kts | 135° |
| 2026-05-08 12:36 | -17.34879 | -67.29650 | 29441 ft | 494 kts | 135° |
| 2026-05-08 12:36 | -17.37239 | -67.27013 | 29629 ft | 497 kts | 135° |
| 2026-05-08 12:36 | -17.39608 | -67.24368 | 29891 ft | 498 kts | 135° |
| 2026-05-08 12:37 | -17.41974 | -67.21720 | 30191 ft | 498 kts | 134° |
| 2026-05-08 12:37 | -17.44338 | -67.19067 | 30479 ft | 498 kts | 134° |
| 2026-05-08 12:37 | -17.46698 | -67.16416 | 30773 ft | 497 kts | 134° |
| 2026-05-08 12:37 | -17.49056 | -67.13768 | 31048 ft | 496 kts | 135° |
| 2026-05-08 12:38 | -17.51414 | -67.11123 | 31344 ft | 496 kts | 135° |
| 2026-05-08 12:38 | -17.53769 | -67.08489 | 31619 ft | 495 kts | 135° |
| 2026-05-08 12:38 | -17.56121 | -67.05857 | 31912 ft | 494 kts | 135° |
| 2026-05-08 12:38 | -17.58467 | -67.03224 | 32221 ft | 494 kts | 135° |
| 2026-05-08 12:39 | -17.60806 | -67.00595 | 32500 ft | 493 kts | 135° |
| 2026-05-08 12:39 | -17.63145 | -66.97969 | 32802 ft | 492 kts | 135° |
| 2026-05-08 12:39 | -17.65480 | -66.95350 | 33105 ft | 492 kts | 135° |
| 2026-05-08 12:39 | -17.67813 | -66.92730 | 33396 ft | 491 kts | 135° |
| 2026-05-08 12:40 | -17.70106 | -66.90148 | 33721 ft | 490 kts | 135° |
| 2026-05-08 12:40 | -17.72454 | -66.87502 | 33996 ft | 490 kts | 135° |
| 2026-05-08 12:40 | -17.74747 | -66.84920 | 34240 ft | 490 kts | 135° |
| 2026-05-08 12:40 | -17.77066 | -66.82306 | 34486 ft | 490 kts | 135° |
| 2026-05-08 12:41 | -17.79420 | -66.79649 | 34721 ft | 490 kts | 135° |
| 2026-05-08 12:41 | -17.81708 | -66.77066 | 34953 ft | 490 kts | 135° |
| 2026-05-08 12:41 | -17.84062 | -66.74412 | 35162 ft | 490 kts | 135° |
| 2026-05-08 12:41 | -17.86385 | -66.71791 | 35362 ft | 490 kts | 135° |
| 2026-05-08 12:42 | -17.88675 | -66.69206 | 35559 ft | 490 kts | 136° |
| 2026-05-08 12:42 | -17.91002 | -66.66589 | 35755 ft | 491 kts | 136° |
| 2026-05-08 12:42 | -17.93339 | -66.63977 | 35953 ft | 491 kts | 136° |
| 2026-05-08 12:42 | -17.95684 | -66.61367 | 36123 ft | 491 kts | 136° |
| 2026-05-08 12:43 | -17.98030 | -66.58761 | 36311 ft | 492 kts | 136° |
| 2026-05-08 12:43 | -18.00381 | -66.56148 | 36484 ft | 492 kts | 136° |
| 2026-05-08 12:43 | -18.02732 | -66.53526 | 36614 ft | 494 kts | 136° |
| 2026-05-08 12:43 | -18.05085 | -66.50895 | 36775 ft | 494 kts | 136° |
| 2026-05-08 12:44 | -18.07437 | -66.48259 | 36921 ft | 495 kts | 136° |
| 2026-05-08 12:44 | -18.09790 | -66.45617 | 37076 ft | 495 kts | 136° |
| 2026-05-08 12:44 | -18.12138 | -66.42978 | 37243 ft | 494 kts | 136° |
| 2026-05-08 12:44 | -18.14493 | -66.40337 | 37303 ft | 496 kts | 136° |
| 2026-05-08 12:45 | -18.19223 | -66.35040 | 37279 ft | 497 kts | 136° |
| 2026-05-08 12:45 | -18.23951 | -66.29741 | 37279 ft | 497 kts | 136° |
| 2026-05-08 12:46 | -18.28683 | -66.24423 | 37244 ft | 498 kts | 136° |
| 2026-05-08 12:46 | -18.33421 | -66.19087 | 37251 ft | 499 kts | 136° |
| 2026-05-08 12:47 | -18.38165 | -66.13751 | 37260 ft | 500 kts | 136° |
| 2026-05-08 12:47 | -18.42922 | -66.08403 | 37242 ft | 500 kts | 137° |
| 2026-05-08 12:48 | -18.47668 | -66.03053 | 37248 ft | 499 kts | 136° |
| 2026-05-08 12:48 | -18.52408 | -65.97708 | 37252 ft | 499 kts | 136° |
| 2026-05-08 12:49 | -18.57174 | -65.92380 | 37231 ft | 500 kts | 136° |
| 2026-05-08 12:49 | -18.61956 | -65.87050 | 37227 ft | 501 kts | 137° |
| 2026-05-08 12:50 | -18.66737 | -65.81710 | 37202 ft | 501 kts | 136° |
| 2026-05-08 12:50 | -18.71505 | -65.76349 | 37201 ft | 501 kts | 136° |
| 2026-05-08 12:51 | -18.78652 | -65.68310 | 37179 ft | 501 kts | 136° |
| 2026-05-08 12:52 | -18.83430 | -65.62949 | 37181 ft | 502 kts | 136° |
| 2026-05-08 12:52 | -18.90600 | -65.54881 | 37162 ft | 502 kts | 136° |
| 2026-05-08 12:53 | -18.95387 | -65.49506 | 37165 ft | 502 kts | 136° |
| 2026-05-08 12:53 | -19.00178 | -65.44152 | 37157 ft | 501 kts | 137° |
| 2026-05-08 12:54 | -19.04969 | -65.38792 | 37211 ft | 502 kts | 136° |
| 2026-05-08 12:54 | -19.09761 | -65.33415 | 37255 ft | 503 kts | 136° |
| 2026-05-08 12:55 | -19.14565 | -65.28026 | 37316 ft | 504 kts | 136° |
| 2026-05-08 12:55 | -19.19373 | -65.22628 | 37393 ft | 504 kts | 136° |
| 2026-05-08 12:56 | -19.24188 | -65.17232 | 37398 ft | 504 kts | 136° |
| 2026-05-08 12:56 | -19.28491 | -65.11355 | 37396 ft | 509 kts | 123° |
| 2026-05-08 12:57 | -19.32151 | -65.04948 | 37377 ft | 509 kts | 123° |
| 2026-05-08 12:57 | -19.35838 | -64.98540 | 37268 ft | 510 kts | 123° |
| 2026-05-08 12:58 | -19.39508 | -64.92163 | 37184 ft | 510 kts | 124° |
| 2026-05-08 12:58 | -19.43218 | -64.85755 | 37095 ft | 510 kts | 124° |
| 2026-05-08 12:59 | -19.46932 | -64.79354 | 37080 ft | 510 kts | 124° |
| 2026-05-08 12:59 | -19.50642 | -64.72944 | 37070 ft | 510 kts | 123° |
| 2026-05-08 13:00 | -19.54346 | -64.66529 | 37068 ft | 510 kts | 123° |
| 2026-05-08 13:00 | -19.58043 | -64.60108 | 37079 ft | 511 kts | 123° |
| 2026-05-08 13:01 | -19.61755 | -64.53659 | 37054 ft | 513 kts | 124° |
| 2026-05-08 13:01 | -19.65470 | -64.47199 | 37069 ft | 513 kts | 124° |
| 2026-05-08 13:02 | -19.69190 | -64.40724 | 37078 ft | 514 kts | 124° |
| 2026-05-08 13:02 | -19.72910 | -64.34246 | 37084 ft | 514 kts | 124° |
| 2026-05-08 13:03 | -19.76631 | -64.27760 | 37094 ft | 514 kts | 124° |
| 2026-05-08 13:03 | -19.80335 | -64.21282 | 37102 ft | 514 kts | 124° |
| 2026-05-08 13:04 | -19.84050 | -64.14780 | 37127 ft | 516 kts | 124° |
| 2026-05-08 13:04 | -19.87773 | -64.08275 | 37114 ft | 515 kts | 124° |
| 2026-05-08 13:05 | -19.91490 | -64.01774 | 37097 ft | 515 kts | 124° |
| 2026-05-08 13:05 | -19.95217 | -63.95270 | 37090 ft | 515 kts | 124° |
| 2026-05-08 13:06 | -19.98916 | -63.88800 | 37090 ft | 516 kts | 124° |
| 2026-05-08 13:06 | -20.02655 | -63.82290 | 37084 ft | 515 kts | 124° |
| 2026-05-08 13:07 | -20.06409 | -63.75795 | 37086 ft | 516 kts | 124° |
| 2026-05-08 13:07 | -20.10173 | -63.69302 | 37131 ft | 516 kts | 124° |
| 2026-05-08 13:08 | -20.13932 | -63.62804 | 37142 ft | 516 kts | 124° |
| 2026-05-08 13:08 | -20.17688 | -63.56292 | 37141 ft | 516 kts | 124° |
| 2026-05-08 13:09 | -20.21434 | -63.49776 | 37132 ft | 516 kts | 124° |
| 2026-05-08 13:09 | -20.25188 | -63.43258 | 37113 ft | 516 kts | 124° |
| 2026-05-08 13:10 | -20.28935 | -63.36737 | 37131 ft | 516 kts | 124° |
| 2026-05-08 13:10 | -20.32683 | -63.30207 | 37107 ft | 517 kts | 124° |
| 2026-05-08 13:11 | -20.36433 | -63.23665 | 37100 ft | 517 kts | 124° |
| 2026-05-08 13:11 | -20.40171 | -63.17116 | 37100 ft | 517 kts | 124° |
| 2026-05-08 13:12 | -20.43920 | -63.10564 | 37094 ft | 518 kts | 124° |
| 2026-05-08 13:12 | -20.47668 | -63.04011 | 37097 ft | 518 kts | 124° |
| 2026-05-08 13:13 | -20.51434 | -62.97469 | 37122 ft | 518 kts | 124° |
| 2026-05-08 13:13 | -20.55224 | -62.90936 | 37114 ft | 518 kts | 124° |
| 2026-05-08 13:14 | -20.59014 | -62.84406 | 37106 ft | 518 kts | 124° |
| 2026-05-08 13:14 | -20.62792 | -62.77859 | 37102 ft | 518 kts | 124° |
| 2026-05-08 13:15 | -20.66564 | -62.71299 | 37099 ft | 519 kts | 124° |
| 2026-05-08 13:15 | -20.70339 | -62.64734 | 37094 ft | 519 kts | 124° |
| 2026-05-08 13:16 | -20.74111 | -62.58156 | 37096 ft | 519 kts | 124° |
| 2026-05-08 13:16 | -20.77885 | -62.51579 | 37120 ft | 519 kts | 124° |
| 2026-05-08 13:17 | -20.81656 | -62.45009 | 37109 ft | 519 kts | 124° |
| 2026-05-08 13:17 | -20.85428 | -62.38435 | 37097 ft | 519 kts | 124° |
| 2026-05-08 13:18 | -20.89191 | -62.31856 | 37094 ft | 519 kts | 124° |
| 2026-05-08 13:18 | -20.92950 | -62.25270 | 37098 ft | 519 kts | 124° |
| 2026-05-08 13:19 | -20.96938 | -62.18867 | 37082 ft | 516 kts | 130° |
| 2026-05-08 13:19 | -21.01217 | -62.12706 | 37103 ft | 516 kts | 130° |
| 2026-05-08 13:20 | -21.04777 | -62.07590 | 37100 ft | 515 kts | 130° |
| 2026-05-08 13:20 | -21.09052 | -62.01434 | 37100 ft | 515 kts | 130° |
| 2026-05-08 13:21 | -21.13326 | -61.95270 | 37105 ft | 515 kts | 130° |
| 2026-05-08 13:21 | -21.17597 | -61.89099 | 37094 ft | 516 kts | 130° |
| 2026-05-08 13:22 | -21.21863 | -61.82917 | 37114 ft | 516 kts | 130° |
| 2026-05-08 13:22 | -21.26122 | -61.76743 | 37109 ft | 515 kts | 130° |
| 2026-05-08 13:23 | -21.30383 | -61.70577 | 37102 ft | 514 kts | 130° |
| 2026-05-08 13:23 | -21.34629 | -61.64412 | 37100 ft | 514 kts | 130° |
| 2026-05-08 13:24 | -21.38872 | -61.58244 | 37094 ft | 513 kts | 130° |
| 2026-05-08 13:24 | -21.43114 | -61.52081 | 37090 ft | 513 kts | 130° |
| 2026-05-08 13:25 | -21.47343 | -61.45921 | 37112 ft | 511 kts | 130° |
| 2026-05-08 13:25 | -21.51553 | -61.39777 | 37106 ft | 510 kts | 129° |
| 2026-05-08 13:26 | -21.55743 | -61.33653 | 37104 ft | 508 kts | 130° |
| 2026-05-08 13:26 | -21.59940 | -61.27529 | 37089 ft | 509 kts | 130° |
| 2026-05-08 13:27 | -21.64104 | -61.21448 | 37086 ft | 509 kts | 130° |
| 2026-05-08 13:27 | -21.68290 | -61.15313 | 37110 ft | 508 kts | 129° |
| 2026-05-08 13:28 | -21.72459 | -61.09191 | 37097 ft | 507 kts | 129° |
| 2026-05-08 13:28 | -21.76617 | -61.03074 | 37092 ft | 506 kts | 129° |
| 2026-05-08 13:29 | -21.80775 | -60.96965 | 37083 ft | 506 kts | 129° |
| 2026-05-08 13:29 | -21.84936 | -60.90850 | 37083 ft | 506 kts | 129° |
| 2026-05-08 13:30 | -21.89095 | -60.84724 | 37104 ft | 506 kts | 129° |
| 2026-05-08 13:30 | -21.93244 | -60.78601 | 37098 ft | 505 kts | 129° |
| 2026-05-08 13:31 | -21.97386 | -60.72491 | 37086 ft | 505 kts | 129° |
| 2026-05-08 13:31 | -22.01529 | -60.66379 | 37081 ft | 505 kts | 129° |
| 2026-05-08 13:32 | -22.05974 | -60.60568 | 37080 ft | 499 kts | 141° |
| 2026-05-08 13:32 | -22.11136 | -60.55598 | 37079 ft | 498 kts | 143° |
| 2026-05-08 13:33 | -22.16288 | -60.50620 | 37097 ft | 497 kts | 142° |
| 2026-05-08 13:33 | -22.21432 | -60.45635 | 37082 ft | 496 kts | 142° |
| 2026-05-08 13:34 | -22.26569 | -60.40650 | 37076 ft | 497 kts | 142° |
| 2026-05-08 13:34 | -22.31706 | -60.35650 | 37074 ft | 497 kts | 142° |
| 2026-05-08 13:35 | -22.36835 | -60.30635 | 37072 ft | 498 kts | 142° |
| 2026-05-08 13:35 | -22.41969 | -60.25615 | 37073 ft | 498 kts | 142° |
| 2026-05-08 13:36 | -22.47102 | -60.20594 | 37071 ft | 498 kts | 142° |
| 2026-05-08 13:36 | -22.52231 | -60.15561 | 37070 ft | 498 kts | 142° |
| 2026-05-08 13:37 | -22.57330 | -60.10551 | 37067 ft | 499 kts | 142° |
| 2026-05-08 13:37 | -22.62471 | -60.05510 | 37086 ft | 499 kts | 142° |
| 2026-05-08 13:38 | -22.67614 | -60.00466 | 37078 ft | 498 kts | 142° |
| 2026-05-08 13:38 | -22.72762 | -59.95444 | 37078 ft | 498 kts | 143° |
| 2026-05-08 13:39 | -22.77993 | -59.90535 | 37076 ft | 497 kts | 144° |
| 2026-05-08 13:39 | -22.83246 | -59.85659 | 37101 ft | 497 kts | 144° |
| 2026-05-08 13:40 | -22.88483 | -59.80758 | 37087 ft | 497 kts | 143° |
| 2026-05-08 13:40 | -22.93694 | -59.75834 | 37082 ft | 497 kts | 143° |
| 2026-05-08 13:41 | -22.98896 | -59.70905 | 37069 ft | 496 kts | 143° |
| 2026-05-08 13:41 | -23.04097 | -59.65987 | 37076 ft | 496 kts | 143° |
| 2026-05-08 13:42 | -23.09308 | -59.61075 | 37093 ft | 496 kts | 144° |
| 2026-05-08 13:42 | -23.14505 | -59.56163 | 37076 ft | 495 kts | 144° |
| 2026-05-08 13:43 | -23.19702 | -59.51240 | 37080 ft | 496 kts | 143° |
| 2026-05-08 13:43 | -23.24896 | -59.46306 | 37079 ft | 496 kts | 143° |
| 2026-05-08 13:44 | -23.30098 | -59.41363 | 37100 ft | 496 kts | 144° |
| 2026-05-08 13:44 | -23.35291 | -59.36415 | 37094 ft | 496 kts | 144° |
| 2026-05-08 13:45 | -23.40491 | -59.31474 | 37073 ft | 496 kts | 143° |
| 2026-05-08 13:45 | -23.45694 | -59.26533 | 37071 ft | 497 kts | 143° |
| 2026-05-08 13:46 | -23.50894 | -59.21570 | 37073 ft | 497 kts | 143° |
| 2026-05-08 13:46 | -23.56093 | -59.16597 | 37105 ft | 498 kts | 144° |
| 2026-05-08 13:47 | -23.61296 | -59.11620 | 37094 ft | 498 kts | 144° |
| 2026-05-08 13:47 | -23.66464 | -59.06674 | 37087 ft | 497 kts | 144° |
| 2026-05-08 13:48 | -23.71667 | -59.01697 | 37071 ft | 498 kts | 143° |
| 2026-05-08 13:48 | -23.76869 | -58.96704 | 37096 ft | 498 kts | 144° |
| 2026-05-08 13:49 | -23.82074 | -58.91698 | 37087 ft | 499 kts | 143° |
| 2026-05-08 13:49 | -23.87287 | -58.86686 | 37060 ft | 500 kts | 144° |
| 2026-05-08 13:50 | -23.89899 | -58.84179 | 36803 ft | 500 kts | 143° |
| 2026-05-08 13:50 | -23.92509 | -58.81671 | 36187 ft | 501 kts | 143° |
| 2026-05-08 13:50 | -23.95140 | -58.79142 | 35222 ft | 506 kts | 143° |
| 2026-05-08 13:50 | -23.97791 | -58.76589 | 34285 ft | 510 kts | 142° |
| 2026-05-08 13:51 | -24.00282 | -58.73794 | 33206 ft | 518 kts | 133° |
| 2026-05-08 13:51 | -24.02434 | -58.70612 | 32191 ft | 522 kts | 127° |
| 2026-05-08 13:51 | -24.04495 | -58.67330 | 31127 ft | 524 kts | 128° |
| 2026-05-08 13:51 | -24.06569 | -58.64045 | 30034 ft | 526 kts | 128° |
| 2026-05-08 13:52 | -24.08657 | -58.60746 | 29003 ft | 525 kts | 128° |
| 2026-05-08 13:52 | -24.10703 | -58.57505 | 28474 ft | 513 kts | 128° |
| 2026-05-08 13:52 | -24.12718 | -58.54308 | 27720 ft | 508 kts | 128° |
| 2026-05-08 13:52 | -24.14707 | -58.51146 | 27028 ft | 502 kts | 128° |
| 2026-05-08 13:53 | -24.16678 | -58.48008 | 26330 ft | 497 kts | 128° |
| 2026-05-08 13:53 | -24.18629 | -58.44902 | 25653 ft | 493 kts | 128° |
| 2026-05-08 13:53 | -24.20567 | -58.41818 | 24962 ft | 490 kts | 128° |
| 2026-05-08 13:53 | -24.22494 | -58.38756 | 24292 ft | 486 kts | 128° |
| 2026-05-08 13:54 | -24.24406 | -58.35715 | 23631 ft | 483 kts | 128° |
| 2026-05-08 13:54 | -24.26301 | -58.32693 | 22907 ft | 479 kts | 128° |
| 2026-05-08 13:54 | -24.28174 | -58.29696 | 22313 ft | 473 kts | 128° |
| 2026-05-08 13:54 | -24.30022 | -58.26741 | 21713 ft | 468 kts | 128° |
| 2026-05-08 13:55 | -24.31852 | -58.23814 | 21173 ft | 462 kts | 128° |
| 2026-05-08 13:55 | -24.33660 | -58.20922 | 20629 ft | 457 kts | 128° |
| 2026-05-08 13:55 | -24.37224 | -58.15224 | 19582 ft | 449 kts | 127° |
| 2026-05-08 13:56 | -24.38984 | -58.12412 | 19062 ft | 446 kts | 127° |
| 2026-05-08 13:56 | -24.40736 | -58.09614 | 18537 ft | 444 kts | 127° |
| 2026-05-08 13:56 | -24.42477 | -58.06828 | 17951 ft | 442 kts | 127° |
| 2026-05-08 13:56 | -24.44201 | -58.04060 | 17407 ft | 438 kts | 126° |
| 2026-05-08 13:57 | -24.45914 | -58.01312 | 16863 ft | 434 kts | 126° |
| 2026-05-08 13:57 | -24.47612 | -57.98588 | 16297 ft | 431 kts | 126° |
| 2026-05-08 13:57 | -24.49349 | -57.95920 | 15736 ft | 428 kts | 131° |
| 2026-05-08 13:57 | -24.51427 | -57.93613 | 15162 ft | 423 kts | 142° |
| 2026-05-08 13:58 | -24.53810 | -57.91759 | 14606 ft | 418 kts | 149° |
| 2026-05-08 13:58 | -24.56211 | -57.90044 | 14048 ft | 416 kts | 149° |
| 2026-05-08 13:58 | -24.58630 | -57.88308 | 13427 ft | 415 kts | 149° |
| 2026-05-08 13:58 | -24.61031 | -57.86578 | 12852 ft | 410 kts | 148° |
| 2026-05-08 13:59 | -24.63406 | -57.84863 | 12261 ft | 406 kts | 149° |
| 2026-05-08 13:59 | -24.65756 | -57.83165 | 11685 ft | 402 kts | 149° |
| 2026-05-08 13:59 | -24.68082 | -57.81483 | 11118 ft | 398 kts | 149° |
| 2026-05-08 13:59 | -24.70375 | -57.79822 | 10718 ft | 390 kts | 149° |
| 2026-05-08 14:00 | -24.72594 | -57.78213 | 10594 ft | 374 kts | 149° |
| 2026-05-08 14:00 | -24.74716 | -57.76672 | 10475 ft | 358 kts | 149° |
| 2026-05-08 14:00 | -24.76756 | -57.75191 | 10356 ft | 344 kts | 149° |
| 2026-05-08 14:00 | -24.78716 | -57.73771 | 10238 ft | 331 kts | 149° |
| 2026-05-08 14:01 | -24.80608 | -57.72401 | 10115 ft | 320 kts | 149° |
| 2026-05-08 14:01 | -24.82463 | -57.71061 | 9750 ft | 318 kts | 150° |
| 2026-05-08 14:01 | -24.84305 | -57.69735 | 9383 ft | 314 kts | 149° |
| 2026-05-08 14:01 | -24.86120 | -57.68424 | 9035 ft | 310 kts | 149° |
| 2026-05-08 14:02 | -24.87907 | -57.67130 | 8673 ft | 306 kts | 149° |
| 2026-05-08 14:02 | -24.89670 | -57.65852 | 8309 ft | 299 kts | 149° |
| 2026-05-08 14:02 | -24.91379 | -57.64611 | 7781 ft | 290 kts | 149° |
| 2026-05-08 14:02 | -24.93037 | -57.63408 | 7227 ft | 281 kts | 148° |
| 2026-05-08 14:03 | -24.94644 | -57.62243 | 6694 ft | 271 kts | 147° |
| 2026-05-08 14:03 | -24.96208 | -57.61110 | 6030 ft | 267 kts | 147° |
| 2026-05-08 14:03 | -24.97741 | -57.59996 | 5427 ft | 263 kts | 147° |
| 2026-05-08 14:03 | -24.99239 | -57.58878 | 5113 ft | 257 kts | 143° |
| 2026-05-08 14:04 | -25.00492 | -57.57441 | 4443 ft | 266 kts | 127° |
| 2026-05-08 14:04 | -25.01481 | -57.55720 | 4074 ft | 262 kts | 124° |
| 2026-05-08 14:04 | -25.02431 | -57.54060 | 3916 ft | 249 kts | 124° |
| 2026-05-08 14:04 | -25.03334 | -57.52494 | 3810 ft | 235 kts | 126° |
| 2026-05-08 14:05 | -25.04189 | -57.51016 | 3695 ft | 222 kts | 126° |
| 2026-05-08 14:05 | -25.05052 | -57.49665 | 3559 ft | 210 kts | 136° |
| 2026-05-08 14:05 | -25.06173 | -57.48713 | 3411 ft | 199 kts | 154° |
| 2026-05-08 14:05 | -25.07453 | -57.48232 | 3232 ft | 193 kts | 170° |
| 2026-05-08 14:06 | -25.08776 | -57.48226 | 3015 ft | 190 kts | 187° |
| 2026-05-08 14:06 | -25.10063 | -57.48531 | 2773 ft | 188 kts | 189° |
| 2026-05-08 14:06 | -25.10905 | -57.48736 | 2641 ft | 186 kts | 189° |
| 2026-05-08 14:06 | -25.12137 | -57.49037 | 2370 ft | 175 kts | 189° |
| 2026-05-08 14:07 | -25.13285 | -57.49316 | 2127 ft | 162 kts | 188° |
| 2026-05-08 14:07 | -25.14329 | -57.49570 | 1939 ft | 144 kts | 189° |
| 2026-05-08 14:07 | -25.15251 | -57.49794 | 1747 ft | 135 kts | 189° |
| 2026-05-08 14:07 | -25.16182 | -57.50019 | 1553 ft | 132 kts | 187° |
| 2026-05-08 14:08 | -25.17069 | -57.50234 | 1372 ft | 130 kts | 187° |
| 2026-05-08 14:08 | -25.17949 | -57.50447 | 1196 ft | 129 kts | 189° |
| 2026-05-08 14:08 | -25.18823 | -57.50659 | 1023 ft | 130 kts | 189° |
| 2026-05-08 14:08 | -25.19703 | -57.50870 | 842 ft | 129 kts | 190° |
| 2026-05-08 14:09 | -25.20576 | -57.51085 | 657 ft | 129 kts | 189° |
| 2026-05-08 14:09 | -25.21449 | -57.51296 | 478 ft | 128 kts | 188° |
| 2026-05-08 14:09 | -25.22308 | -57.51501 | 350 ft | 126 kts | 187° |
| 2026-05-08 14:09 | -25.23151 | -57.51708 | 304 ft | 118 kts | 188° |
| 2026-05-08 14:10 | -25.23808 | -57.51868 | 299 ft | 73 kts | 192° |
| 2026-05-08 14:10 | -25.24171 | -57.51956 | 302 ft | 44 kts | 192° |
| 2026-05-08 14:10 | -25.24443 | -57.52021 | 301 ft | 37 kts | 192° |
| 2026-05-08 14:10 | -25.24674 | -57.52079 | 301 ft | 32 kts | 193° |
| 2026-05-08 14:11 | -25.24883 | -57.52130 | 298 ft | 29 kts | 192° |
| 2026-05-08 14:11 | -25.25073 | -57.52175 | 300 ft | 27 kts | 192° |
| 2026-05-08 14:11 | -25.25250 | -57.52219 | 299 ft | 26 kts | 192° |
| 2026-05-08 14:11 | -25.25414 | -57.52256 | 298 ft | 20 kts | 179° |
| 2026-05-08 14:12 | -25.25477 | -57.52144 | 300 ft | 19 kts | 101° |
| 2026-05-08 14:12 | -25.25435 | -57.52048 | 299 ft | 14 kts | 16° |
| 2026-05-08 14:12 | -25.25339 | -57.52025 | 299 ft | 14 kts | 12° |
| 2026-05-08 14:12 | -25.25250 | -57.52004 | 300 ft | 13 kts | 12° |
| 2026-05-08 14:13 | -25.25168 | -57.51983 | 299 ft | 12 kts | 12° |
| 2026-05-08 14:13 | -25.25091 | -57.51965 | 299 ft | 11 kts | 12° |
| 2026-05-08 14:13 | -25.25009 | -57.51945 | 299 ft | 17 kts | 12° |
| 2026-05-08 14:13 | -25.24873 | -57.51912 | 299 ft | 20 kts | 12° |
| 2026-05-08 14:14 | -25.24742 | -57.51880 | 300 ft | 18 kts | 12° |
| 2026-05-08 14:14 | -25.24621 | -57.51850 | 300 ft | 17 kts | 12° |
| 2026-05-08 14:14 | -25.24509 | -57.51824 | 303 ft | 16 kts | 12° |
| 2026-05-08 14:14 | -25.24412 | -57.51787 | 299 ft | 14 kts | 40° |
| 2026-05-08 14:15 | -25.24359 | -57.51702 | 299 ft | 13 kts | 58° |
| 2026-05-08 14:15 | -25.24295 | -57.51651 | 299 ft | 11 kts | 17° |
| 2026-05-08 14:15 | -25.24219 | -57.51617 | 301 ft | 11 kts | 64° |
| 2026-05-08 14:15 | -25.24232 | -57.51555 | 303 ft | 7 kts | 102° |
| 2026-05-08 14:16 | -25.24233 | -57.51548 | 301 ft | 1 kts | 103° |
| 2026-05-08 14:16 | -25.24234 | -57.51546 | 301 ft | 0 kts | 103° |